Time;durP1;ratioP1;P1;durP2;ratioP2;P2;SDS_P1;SDS_P2;PMS_P1;PMS_P2;Temp;Humidity;BMP_temperature;BMP_pressure;BME280_temperature;BME280_humidity;BME280_pressure;Samples;Min_cycle;Max_cycle;Signal;HPM_P1;HPM_P2
2022/08/09 00:36:48;;;;;;;44.13;41.58;;;;;;;20.18;100.00;101114.81;4954639;29;20082;-86
2022/08/09 00:39:38;;;;;;;51.25;48.22;;;;;;;20.55;100.00;101122.91;4973889;28;20059;-85
2022/08/09 00:42:07;;;;;;;50.00;47.10;;;;;;;19.99;100.00;101129.81;4966367;28;20483;-85
2022/08/09 00:44:42;;;;;;;51.03;48.20;;;;;;;20.41;100.00;101124.41;4978687;28;20054;-85
2022/08/09 00:47:28;;;;;;;56.97;53.80;;;;;;;20.53;100.00;101122.34;4977271;28;20043;-85
2022/08/09 00:49:55;;;;;;;51.00;48.00;;;;;;;20.09;100.00;101125.31;4973094;28;20065;-87
2022/08/09 00:52:28;;;;;;;67.28;63.40;;;;;;;20.03;100.00;101136.31;4978337;28;20377;-85
2022/08/09 01:29:16;;;;;;;47.15;44.65;;;;;;;20.03;100.00;101133.59;4771373;30;20567;-84
2022/08/09 01:32:04;;;;;;;41.03;38.55;;;;;;;19.74;100.00;101133.94;4811160;29;20058;-86
2022/08/09 01:34:35;;;;;;;42.25;39.75;;;;;;;19.80;100.00;101140.19;4825474;29;20488;-84
2022/08/09 01:37:06;;;;;;;40.30;37.65;;;;;;;19.31;100.00;101138.34;4911202;29;20590;-85
2022/08/09 01:39:57;;;;;;;49.60;46.80;;;;;;;19.18;100.00;101141.44;4918705;29;20054;-86
2022/08/09 01:42:32;;;;;;;45.70;43.00;;;;;;;19.40;100.00;101126.06;4940678;28;20051;-84
2022/08/09 01:45:10;;;;;;;40.50;37.80;;;;;;;19.97;100.00;101135.47;4958512;28;20484;-86
2022/08/09 01:47:42;;;;;;;45.00;41.65;;;;;;;19.89;100.00;101138.63;4972998;28;20054;-85
2022/08/09 01:50:29;;;;;;;48.65;45.47;;;;;;;19.61;100.00;101134.34;4969654;28;20054;-86
2022/08/09 01:53:32;;;;;;;49.28;46.67;;;;;;;19.78;100.00;101129.66;4976813;28;20117;-87
2022/08/09 01:56:06;;;;;;;49.42;46.78;;;;;;;19.58;100.00;101138.34;4904392;29;20056;-87
2022/08/09 01:58:58;;;;;;;48.80;45.90;;;;;;;18.94;100.00;101139.03;4898754;29;20052;-87
2022/08/09 02:28:20;;;;;;;46.92;43.83;;;;;;;19.48;100.00;101135.53;5708426;23;20038;-86
2022/08/09 02:31:07;;;;;;;44.15;40.97;;;;;;;19.36;100.00;101132.19;5034622;28;20148;-86
2022/08/09 02:33:53;;;;;;;41.83;38.80;;;;;;;19.57;100.00;101123.25;5030797;28;20513;-91
2022/08/09 02:36:40;;;;;;;41.55;38.75;;;;;;;19.70;100.00;101130.13;5033911;28;20049;-89
2022/08/09 02:39:22;;;;;;;39.70;36.42;;;;;;;19.39;100.00;101123.59;5035273;28;20517;-85
2022/08/09 02:42:00;;;;;;;39.83;37.03;;;;;;;18.45;100.00;101124.63;5033439;28;20064;-88
2022/08/09 02:44:41;;;;;;;44.72;41.13;;;;;;;19.33;100.00;101121.94;5034326;28;20049;-85
2022/08/09 02:47:22;;;;;;;42.42;39.30;;;;;;;19.07;100.00;101131.63;5034843;28;20045;-87
2022/08/09 02:49:57;;;;;;;51.63;48.10;;;;;;;19.05;100.00;101123.81;5035029;28;20493;-87
2022/08/09 02:52:43;;;;;;;45.20;41.35;;;;;;;18.53;100.00;101134.97;5034758;28;20489;-87
2022/08/09 02:55:12;;;;;;;46.22;43.47;;;;;;;19.37;100.00;101131.16;5034413;28;20115;-85
2022/08/09 02:57:41;;;;;;;56.47;52.70;;;;;;;19.03;100.00;101141.25;5034454;28;20045;-90
2022/08/09 03:00:10;;;;;;;44.65;41.60;;;;;;;18.58;100.00;101140.44;5034612;28;20046;-86
2022/08/09 03:02:38;;;;;;;46.85;43.75;;;;;;;18.80;100.00;101136.97;5034144;28;20054;-86
2022/08/09 03:07:59;;;;;;;41.15;37.80;;;;;;;18.63;100.00;101143.16;5033745;28;20060;-86
2022/08/09 03:10:57;;;;;;;40.25;37.45;;;;;;;18.57;100.00;101136.09;5028111;28;20044;-86
2022/08/09 03:14:03;;;;;;;35.78;33.15;;;;;;;18.60;100.00;101138.28;5030161;28;20049;-86
2022/08/09 03:26:16;;;;;;;39.13;36.17;;;;;;;19.06;100.00;101136.19;4972780;28;20086;-88
2022/08/09 03:29:49;;;;;;;37.70;34.78;;;;;;;18.55;100.00;101149.00;4964901;28;20061;-89
2022/08/09 03:32:51;;;;;;;37.58;35.03;;;;;;;18.82;100.00;101148.28;4841154;29;20059;-89
2022/08/09 03:35:21;;;;;;;39.17;36.60;;;;;;;19.07;100.00;101145.09;4889142;29;20112;-87
2022/08/09 03:45:39;;;;;;;;;;;;;;;;;;;;;
2022/08/09 05:35:06;;;;;;;34.67;32.07;;;;;;;23.61;100.00;101164.28;4895735;28;20442;-86
2022/08/09 05:37:33;;;;;;;29.90;27.60;;;;;;;24.03;100.00;101152.03;4975972;28;20161;-86
2022/08/09 05:50:33;;;;;;;29.80;27.38;;;;;;;25.18;100.00;101162.16;5041609;28;20057;-87
2022/08/09 05:53:00;;;;;;;30.13;28.20;;;;;;;24.98;100.00;101161.28;5052655;28;20128;-85
2022/08/09 05:55:32;;;;;;;33.13;30.80;;;;;;;24.96;100.00;101168.91;5053638;28;20187;-85
2022/08/09 06:18:25;;;;;;;28.70;26.90;;;;;;;25.74;100.00;101174.91;4812338;29;19925;-84
2022/08/09 09:57:59;;;;;;;37.80;34.15;;;;;;;32.03;65.39;101071.50;6194882;23;20015;-86
2022/08/09 11:13:23;;;;;;;32.67;29.85;;;;;;;34.56;44.62;100983.97;6217607;23;20027;-87
2022/08/09 11:16:46;;;;;;;33.45;30.23;;;;;;;34.40;36.99;100981.25;6217408;23;20020;-87
2022/08/09 11:29:14;;;;;;;36.03;32.92;;;;;;;34.54;41.60;100974.47;6205916;23;20389;-86
2022/08/09 13:00:46;;;;;;;31.75;29.15;;;;;;;33.85;29.57;100869.41;5975911;23;20031;-86
2022/08/09 13:03:13;;;;;;;31.40;28.40;;;;;;;33.91;31.61;100866.00;6039358;23;20530;-86
2022/08/09 13:05:43;;;;;;;32.47;28.88;;;;;;;33.97;28.43;100870.06;6124401;23;20498;-86
2022/08/09 13:08:43;;;;;;;31.58;29.00;;;;;;;34.29;29.01;100855.41;6124562;23;20032;-87
2022/08/09 13:11:10;;;;;;;28.60;26.48;;;;;;;34.45;28.21;100847.81;6124646;23;20447;-85
2022/08/09 13:13:39;;;;;;;29.52;27.13;;;;;;;34.12;28.62;100848.38;6147427;23;20438;-85
2022/08/09 13:16:11;;;;;;;29.77;27.27;;;;;;;34.51;28.90;100849.13;6185328;23;20013;-84
2022/08/09 13:18:42;;;;;;;28.02;26.02;;;;;;;34.85;29.19;100841.88;6185894;23;20025;-85
2022/08/09 13:21:18;;;;;;;26.98;24.95;;;;;;;34.25;33.71;100846.25;6185707;23;20025;-84
2022/08/09 13:23:45;;;;;;;33.53;31.00;;;;;;;34.68;27.36;100839.63;6184915;23;20017;-86
2022/08/09 13:26:35;;;;;;;26.20;23.80;;;;;;;34.93;27.69;100842.78;6185628;23;20065;-86
2022/08/09 13:29:25;;;;;;;27.95;25.73;;;;;;;35.23;26.80;100840.16;6178041;23;20035;-86
2022/08/09 13:32:00;;;;;;;28.50;26.10;;;;;;;35.62;28.27;100839.97;6210820;23;20532;-86
2022/08/09 13:34:37;;;;;;;28.92;26.40;;;;;;;35.75;25.17;100837.75;6215828;23;20020;-85
2022/08/09 13:37:10;;;;;;;28.45;26.00;;;;;;;36.03;25.27;100845.63;6215883;23;20025;-87
2022/08/09 13:39:43;;;;;;;30.10;27.80;;;;;;;34.65;29.44;100843.91;6215398;23;20017;-89
2022/08/09 13:42:17;;;;;;;28.35;26.10;;;;;;;34.51;27.30;100857.38;6215905;23;20020;-86
2022/08/09 13:44:57;;;;;;;27.35;25.23;;;;;;;34.28;35.84;100851.81;6216031;23;20016;-86
2022/08/09 13:47:32;;;;;;;26.73;24.50;;;;;;;33.77;38.17;100856.63;6215978;23;20446;-87
2022/08/09 13:50:15;;;;;;;27.08;24.88;;;;;;;34.23;34.14;100848.59;6216524;23;20020;-85
2022/08/09 13:52:45;;;;;;;30.27;27.80;;;;;;;34.62;34.17;100846.59;6215943;23;20472;-86
2022/08/09 13:55:12;;;;;;;29.90;27.27;;;;;;;35.34;24.28;100834.78;6215567;23;20341;-85
2022/08/09 13:58:52;;;;;;;29.17;26.98;;;;;;;34.71;28.46;100840.81;6215914;23;20327;-88
2022/08/09 14:05:03;;;;;;;31.85;27.30;;;;;;;34.05;37.81;100846.25;5926155;24;20203;-88
2022/08/09 14:18:32;;;;;;;29.08;26.98;;;;;;;34.80;23.91;100822.88;5808374;24;20076;-85
2022/08/09 14:21:56;;;;;;;30.10;27.60;;;;;;;33.85;30.30;100836.38;5861305;24;20468;-86
2022/08/09 14:25:04;;;;;;;32.47;29.98;;;;;;;35.07;24.42;100815.47;6113197;22;20031;-85
2022/08/09 15:04:10;;;;;;;31.98;29.00;;;;;;;32.91;29.93;100858.13;5894939;24;20070;-85
2022/08/09 15:06:53;;;;;;;30.60;27.95;;;;;;;32.66;30.72;100864.94;5899773;24;20045;-85
2022/08/09 15:09:51;;;;;;;28.75;26.33;;;;;;;32.46;31.03;100866.75;5900015;24;20037;-85
2022/08/09 15:12:40;;;;;;;33.85;31.33;;;;;;;32.22;30.42;100862.13;5909106;24;20029;-85
2022/08/09 15:22:40;;;;;;;32.25;29.42;;;;;;;32.28;29.79;100877.19;5865171;24;20111;-87
2022/08/09 15:25:09;;;;;;;32.15;29.95;;;;;;;31.90;29.49;100868.28;5815640;24;20031;-86
2022/08/09 15:38:00;;;;;;;;;;;;;;;;;;;;;
2022/08/09 16:21:58;;;;;;;28.98;26.98;;;;;;;31.81;29.47;100845.63;5895498;24;20039;-88
2022/08/09 16:24:38;;;;;;;29.73;27.42;;;;;;;31.73;28.60;100838.31;5927142;24;20017;-87
2022/08/09 16:27:07;;;;;;;31.23;28.98;;;;;;;31.73;30.34;100848.50;6038125;23;20023;-85
2022/08/09 16:33:07;;;;;;;28.27;25.98;;;;;;;31.64;28.85;100863.13;6039500;23;20020;-86
2022/08/09 16:37:57;;;;;;;28.83;26.75;;;;;;;31.22;29.92;100860.59;6190497;23;20016;-88
2022/08/09 16:40:42;;;;;;;33.13;30.73;;;;;;;31.12;33.19;100869.31;6216942;23;20017;-90
2022/08/09 16:43:29;;;;;;;36.78;34.08;;;;;;;30.93;29.50;100861.63;6217903;23;20016;-87
2022/08/09 16:46:03;;;;;;;35.47;32.47;;;;;;;30.88;30.23;100866.53;6216347;23;20013;-89
2022/08/09 16:48:51;;;;;;;33.88;31.48;;;;;;;30.78;29.93;100859.53;6216964;23;20345;-86
2022/08/09 16:51:31;;;;;;;30.45;28.13;;;;;;;30.70;30.90;100863.13;6217287;23;20028;-89
2022/08/09 16:54:01;;;;;;;27.25;25.15;;;;;;;30.66;35.37;100870.44;6218051;23;20307;-87
2022/08/09 16:56:30;;;;;;;29.85;27.38;;;;;;;30.56;30.25;100867.00;6217017;23;20024;-87
2022/08/09 16:59:11;;;;;;;30.38;27.92;;;;;;;30.41;30.41;100866.78;6216949;23;20016;-88
2022/08/09 17:04:45;;;;;;;30.30;28.02;;;;;;;30.24;30.76;100870.50;6202626;23;20028;-86
2022/08/09 17:07:25;;;;;;;31.98;29.48;;;;;;;30.09;30.24;100872.69;6216724;23;20060;-88
2022/08/09 17:10:05;;;;;;;29.65;27.13;;;;;;;30.01;30.83;100883.69;6215971;23;20031;-89
2022/08/09 17:12:47;;;;;;;31.00;28.08;;;;;;;29.75;31.35;100873.72;6216163;23;20023;-89
2022/08/09 17:19:13;;;;;;;28.98;26.38;;;;;;;29.28;34.39;100873.78;6171970;23;20031;-88
